Home, Kansas
Current Conditions -  °F | °C
As of 12:15 PM on Thursday 30 Oct 2014 (Local Time) from KMYZ Reporting Station
Clear Clear  
Wind Chill: 64°   Ceiling: Unl
Heat Index: 64°   Visibility: 10mi
Dew Point: 39°   Wind: 23mph
Humidity: 40%   Direction: 350°N
Pressure: 30.09"   Gusts: 28mph
Location:  39.84°N, 96.52°W
Report Text: KMYZ 301715Z AUTO 35020G24KT 10SM CLR 18/04 A3009 RMK AO2
Loading
Personal Weather Stations






























Interactive Weather Map
Tropical Storm Tracking
New forecast layout! Learn more

10-Day Weather Forecast

Advertisements
Track Severe Weather on mobile